sensor_id;sensor_type;location;lat;lon;timestamp;P1;durP1;ratioP1;P2;durP2;ratioP2
13415;SDS011;6779;50.150;8.680;2023-04-02T00:00:33;2.23;;;2.00;;
13415;SDS011;6779;50.150;8.680;2023-04-02T00:03:00;2.03;;;1.83;;
13415;SDS011;6779;50.150;8.680;2023-04-02T00:07:58;1.83;;;1.73;;
13415;SDS011;6779;50.150;8.680;2023-04-02T00:10:31;3.30;;;2.20;;
13415;SDS011;6779;50.150;8.680;2023-04-02T00:15:36;2.03;;;1.93;;
13415;SDS011;6779;50.150;8.680;2023-04-02T00:18:03;2.03;;;1.90;;
13415;SDS011;6779;50.150;8.680;2023-04-02T00:20:29;4.03;;;2.00;;
13415;SDS011;6779;50.150;8.680;2023-04-02T00:22:58;1.97;;;1.80;;
13415;SDS011;6779;50.150;8.680;2023-04-02T00:25:25;2.40;;;1.80;;
13415;SDS011;6779;50.150;8.680;2023-04-02T00:27:52;2.20;;;2.00;;
13415;SDS011;6779;50.150;8.680;2023-04-02T00:30:17;2.10;;;1.80;;
13415;SDS011;6779;50.150;8.680;2023-04-02T00:32:43;2.03;;;1.87;;
13415;SDS011;6779;50.150;8.680;2023-04-02T00:35:09;2.70;;;1.93;;
13415;SDS011;6779;50.150;8.680;2023-04-02T00:37:36;1.90;;;1.80;;
13415;SDS011;6779;50.150;8.680;2023-04-02T00:40:19;3.50;;;2.00;;
13415;SDS011;6779;50.150;8.680;2023-04-02T00:42:47;2.23;;;1.80;;
13415;SDS011;6779;50.150;8.680;2023-04-02T00:45:18;2.00;;;1.80;;
13415;SDS011;6779;50.150;8.680;2023-04-02T00:47:48;2.63;;;1.87;;
13415;SDS011;6779;50.150;8.680;2023-04-02T00:52:39;2.73;;;2.03;;
13415;SDS011;6779;50.150;8.680;2023-04-02T00:57:57;2.60;;;2.37;;
13415;SDS011;6779;50.150;8.680;2023-04-02T01:05:47;3.00;;;2.50;;
13415;SDS011;6779;50.150;8.680;2023-04-02T01:08:30;3.13;;;2.90;;
13415;SDS011;6779;50.150;8.680;2023-04-02T01:11:28;4.03;;;2.90;;
13415;SDS011;6779;50.150;8.680;2023-04-02T01:14:18;3.33;;;2.67;;
13415;SDS011;6779;50.150;8.680;2023-04-02T01:19:55;4.10;;;3.03;;
13415;SDS011;6779;50.150;8.680;2023-04-02T01:22:26;3.57;;;2.93;;
13415;SDS011;6779;50.150;8.680;2023-04-02T01:24:59;3.03;;;2.53;;
13415;SDS011;6779;50.150;8.680;2023-04-02T01:27:26;3.30;;;2.80;;
13415;SDS011;6779;50.150;8.680;2023-04-02T01:29:55;3.53;;;2.50;;
13415;SDS011;6779;50.150;8.680;2023-04-02T01:32:22;4.90;;;2.80;;
13415;SDS011;6779;50.150;8.680;2023-04-02T01:34:48;2.93;;;2.67;;
13415;SDS011;6779;50.150;8.680;2023-04-02T01:45:26;3.50;;;3.20;;
13415;SDS011;6779;50.150;8.680;2023-04-02T01:47:53;3.10;;;2.80;;
13415;SDS011;6779;50.150;8.680;2023-04-02T01:50:21;4.67;;;3.10;;
13415;SDS011;6779;50.150;8.680;2023-04-02T01:52:51;4.60;;;3.03;;
13415;SDS011;6779;50.150;8.680;2023-04-02T01:55:19;3.60;;;3.30;;
13415;SDS011;6779;50.150;8.680;2023-04-02T01:57:50;3.63;;;2.87;;
13415;SDS011;6779;50.150;8.680;2023-04-02T02:00:17;4.43;;;3.07;;
13415;SDS011;6779;50.150;8.680;2023-04-02T02:02:45;3.40;;;3.10;;
13415;SDS011;6779;50.150;8.680;2023-04-02T02:05:11;3.97;;;3.40;;
13415;SDS011;6779;50.150;8.680;2023-04-02T02:07:38;4.17;;;3.20;;
13415;SDS011;6779;50.150;8.680;2023-04-02T02:10:05;5.70;;;3.73;;
13415;SDS011;6779;50.150;8.680;2023-04-02T02:12:31;4.30;;;3.47;;
13415;SDS011;6779;50.150;8.680;2023-04-02T02:14:56;3.70;;;3.40;;
13415;SDS011;6779;50.150;8.680;2023-04-02T02:17:29;4.67;;;3.90;;
13415;SDS011;6779;50.150;8.680;2023-04-02T02:19:58;4.50;;;4.10;;
13415;SDS011;6779;50.150;8.680;2023-04-02T02:22:31;4.33;;;3.60;;
13415;SDS011;6779;50.150;8.680;2023-04-02T02:24:59;4.97;;;4.00;;
13415;SDS011;6779;50.150;8.680;2023-04-02T02:29:56;6.83;;;4.50;;
13415;SDS011;6779;50.150;8.680;2023-04-02T02:32:26;6.33;;;4.30;;
13415;SDS011;6779;50.150;8.680;2023-04-02T02:34:54;4.43;;;4.03;;
13415;SDS011;6779;50.150;8.680;2023-04-02T02:37:30;4.80;;;4.00;;
13415;SDS011;6779;50.150;8.680;2023-04-02T02:40:00;4.60;;;4.03;;
13415;SDS011;6779;50.150;8.680;2023-04-02T02:42:30;4.10;;;3.70;;
13415;SDS011;6779;50.150;8.680;2023-04-02T02:44:58;4.47;;;4.00;;
13415;SDS011;6779;50.150;8.680;2023-04-02T02:47:25;4.97;;;4.10;;
13415;SDS011;6779;50.150;8.680;2023-04-02T02:49:53;6.00;;;4.23;;
13415;SDS011;6779;50.150;8.680;2023-04-02T02:52:30;5.40;;;4.63;;
13415;SDS011;6779;50.150;8.680;2023-04-02T02:54:58;4.90;;;4.43;;
13415;SDS011;6779;50.150;8.680;2023-04-02T02:57:38;5.00;;;4.50;;
13415;SDS011;6779;50.150;8.680;2023-04-02T03:00:08;4.97;;;4.50;;
13415;SDS011;6779;50.150;8.680;2023-04-02T03:02:36;5.50;;;4.47;;
13415;SDS011;6779;50.150;8.680;2023-04-02T03:05:02;5.90;;;4.23;;
13415;SDS011;6779;50.150;8.680;2023-04-02T03:07:28;6.03;;;4.63;;
13415;SDS011;6779;50.150;8.680;2023-04-02T03:15:49;4.63;;;3.97;;
13415;SDS011;6779;50.150;8.680;2023-04-02T03:23:54;6.17;;;4.97;;
13415;SDS011;6779;50.150;8.680;2023-04-02T03:26:23;6.13;;;4.60;;
13415;SDS011;6779;50.150;8.680;2023-04-02T03:28:56;6.43;;;5.00;;
13415;SDS011;6779;50.150;8.680;2023-04-02T03:31:33;5.47;;;4.97;;
13415;SDS011;6779;50.150;8.680;2023-04-02T03:34:12;6.00;;;5.07;;
13415;SDS011;6779;50.150;8.680;2023-04-02T03:36:47;5.33;;;4.80;;
13415;SDS011;6779;50.150;8.680;2023-04-02T03:39:19;5.90;;;5.03;;
13415;SDS011;6779;50.150;8.680;2023-04-02T03:44:38;4.87;;;4.37;;
13415;SDS011;6779;50.150;8.680;2023-04-02T03:47:16;5.23;;;4.73;;
13415;SDS011;6779;50.150;8.680;2023-04-02T03:49:48;6.03;;;4.80;;
13415;SDS011;6779;50.150;8.680;2023-04-02T03:52:22;5.50;;;4.93;;
13415;SDS011;6779;50.150;8.680;2023-04-02T03:54:50;5.73;;;5.13;;
13415;SDS011;6779;50.150;8.680;2023-04-02T03:59:58;7.20;;;5.33;;
13415;SDS011;6779;50.150;8.680;2023-04-02T04:04:58;5.63;;;4.90;;
13415;SDS011;6779;50.150;8.680;2023-04-02T04:07:35;6.27;;;4.87;;
13415;SDS011;6779;50.150;8.680;2023-04-02T04:10:03;7.97;;;5.30;;
13415;SDS011;6779;50.150;8.680;2023-04-02T04:12:34;5.73;;;5.13;;
13415;SDS011;6779;50.150;8.680;2023-04-02T04:17:58;4.70;;;4.30;;
13415;SDS011;6779;50.150;8.680;2023-04-02T04:20:35;5.60;;;5.10;;
13415;SDS011;6779;50.150;8.680;2023-04-02T04:23:13;5.10;;;4.57;;
13415;SDS011;6779;50.150;8.680;2023-04-02T04:25:43;7.77;;;4.60;;
13415;SDS011;6779;50.150;8.680;2023-04-02T04:28:12;5.97;;;4.60;;
13415;SDS011;6779;50.150;8.680;2023-04-02T04:33:27;6.17;;;5.47;;
13415;SDS011;6779;50.150;8.680;2023-04-02T04:36:03;6.50;;;5.30;;
13415;SDS011;6779;50.150;8.680;2023-04-02T04:38:37;7.90;;;5.73;;
13415;SDS011;6779;50.150;8.680;2023-04-02T04:41:05;6.30;;;5.53;;
13415;SDS011;6779;50.150;8.680;2023-04-02T04:43:47;7.27;;;5.80;;
13415;SDS011;6779;50.150;8.680;2023-04-02T04:48:59;8.30;;;5.97;;
13415;SDS011;6779;50.150;8.680;2023-04-02T04:51:33;7.57;;;5.90;;
13415;SDS011;6779;50.150;8.680;2023-04-02T04:54:01;7.37;;;5.70;;
13415;SDS011;6779;50.150;8.680;2023-04-02T04:56:27;7.77;;;5.80;;
13415;SDS011;6779;50.150;8.680;2023-04-02T04:59:01;7.50;;;6.20;;
13415;SDS011;6779;50.150;8.680;2023-04-02T05:01:35;8.43;;;6.30;;
13415;SDS011;6779;50.150;8.680;2023-04-02T05:04:15;8.37;;;6.23;;
13415;SDS011;6779;50.150;8.680;2023-04-02T05:06:42;8.90;;;6.20;;
13415;SDS011;6779;50.150;8.680;2023-04-02T05:09:20;6.60;;;6.00;;
13415;SDS011;6779;50.150;8.680;2023-04-02T05:11:57;9.23;;;6.00;;
13415;SDS011;6779;50.150;8.680;2023-04-02T05:14:34;9.73;;;7.00;;
13415;SDS011;6779;50.150;8.680;2023-04-02T05:17:07;8.30;;;6.63;;
13415;SDS011;6779;50.150;8.680;2023-04-02T05:19:39;8.97;;;7.30;;
13415;SDS011;6779;50.150;8.680;2023-04-02T05:22:11;7.10;;;6.33;;
13415;SDS011;6779;50.150;8.680;2023-04-02T05:24:59;9.07;;;7.00;;
13415;SDS011;6779;50.150;8.680;2023-04-02T05:32:52;9.43;;;7.63;;
13415;SDS011;6779;50.150;8.680;2023-04-02T05:35:20;9.03;;;7.53;;
13415;SDS011;6779;50.150;8.680;2023-04-02T05:37:51;10.97;;;8.03;;
13415;SDS011;6779;50.150;8.680;2023-04-02T05:40:21;9.83;;;7.87;;
13415;SDS011;6779;50.150;8.680;2023-04-02T05:42:50;9.53;;;8.10;;
13415;SDS011;6779;50.150;8.680;2023-04-02T05:45:30;9.63;;;7.63;;
13415;SDS011;6779;50.150;8.680;2023-04-02T05:47:57;11.90;;;9.37;;
13415;SDS011;6779;50.150;8.680;2023-04-02T05:50:35;11.60;;;8.43;;
13415;SDS011;6779;50.150;8.680;2023-04-02T05:53:13;12.43;;;8.73;;
13415;SDS011;6779;50.150;8.680;2023-04-02T05:55:53;12.83;;;9.03;;
13415;SDS011;6779;50.150;8.680;2023-04-02T06:09:12;11.87;;;8.33;;
13415;SDS011;6779;50.150;8.680;2023-04-02T06:11:40;10.30;;;8.60;;
13415;SDS011;6779;50.150;8.680;2023-04-02T06:14:13;12.20;;;8.97;;
13415;SDS011;6779;50.150;8.680;2023-04-02T06:16:40;5.43;;;3.80;;
13415;SDS011;6779;50.150;8.680;2023-04-02T06:19:10;1.50;;;1.40;;
13415;SDS011;6779;50.150;8.680;2023-04-02T06:21:44;1.60;;;1.20;;
13415;SDS011;6779;50.150;8.680;2023-04-02T06:24:10;1.20;;;1.10;;
13415;SDS011;6779;50.150;8.680;2023-04-02T06:26:39;0.77;;;0.77;;
13415;SDS011;6779;50.150;8.680;2023-04-02T06:29:07;1.20;;;0.70;;
13415;SDS011;6779;50.150;8.680;2023-04-02T06:31:42;1.03;;;1.00;;
13415;SDS011;6779;50.150;8.680;2023-04-02T06:34:25;2.27;;;1.00;;
13415;SDS011;6779;50.150;8.680;2023-04-02T06:36:59;1.57;;;0.90;;
13415;SDS011;6779;50.150;8.680;2023-04-02T06:39:26;0.77;;;0.77;;
13415;SDS011;6779;50.150;8.680;2023-04-02T06:41:57;1.10;;;1.00;;
13415;SDS011;6779;50.150;8.680;2023-04-02T06:44:25;0.90;;;0.90;;
13415;SDS011;6779;50.150;8.680;2023-04-02T06:46:53;0.90;;;0.90;;
13415;SDS011;6779;50.150;8.680;2023-04-02T06:49:22;0.90;;;0.90;;
13415;SDS011;6779;50.150;8.680;2023-04-02T06:51:51;0.70;;;0.70;;
13415;SDS011;6779;50.150;8.680;2023-04-02T06:54:18;0.80;;;0.80;;
13415;SDS011;6779;50.150;8.680;2023-04-02T06:56:45;0.90;;;0.90;;
13415;SDS011;6779;50.150;8.680;2023-04-02T06:59:15;1.03;;;1.00;;
13415;SDS011;6779;50.150;8.680;2023-04-02T07:01:42;1.20;;;1.10;;
13415;SDS011;6779;50.150;8.680;2023-04-02T07:04:11;1.20;;;1.10;;
13415;SDS011;6779;50.150;8.680;2023-04-02T07:06:36;0.90;;;0.90;;
13415;SDS011;6779;50.150;8.680;2023-04-02T07:09:02;1.10;;;1.10;;
13415;SDS011;6779;50.150;8.680;2023-04-02T07:11:28;0.90;;;0.90;;
13415;SDS011;6779;50.150;8.680;2023-04-02T07:13:53;1.00;;;0.90;;
13415;SDS011;6779;50.150;8.680;2023-04-02T07:16:20;2.70;;;1.23;;
13415;SDS011;6779;50.150;8.680;2023-04-02T07:18:47;1.30;;;1.20;;
13415;SDS011;6779;50.150;8.680;2023-04-02T07:21:12;3.83;;;1.10;;
13415;SDS011;6779;50.150;8.680;2023-04-02T07:23:37;1.07;;;1.00;;
13415;SDS011;6779;50.150;8.680;2023-04-02T07:26:03;2.63;;;1.60;;
13415;SDS011;6779;50.150;8.680;2023-04-02T07:28:29;0.90;;;0.90;;
13415;SDS011;6779;50.150;8.680;2023-04-02T07:30:55;0.93;;;0.93;;
13415;SDS011;6779;50.150;8.680;2023-04-02T07:33:21;1.20;;;1.10;;
13415;SDS011;6779;50.150;8.680;2023-04-02T07:35:48;1.30;;;1.20;;
13415;SDS011;6779;50.150;8.680;2023-04-02T07:38:14;1.13;;;1.13;;
13415;SDS011;6779;50.150;8.680;2023-04-02T07:40:40;0.93;;;0.93;;
13415;SDS011;6779;50.150;8.680;2023-04-02T07:43:05;0.80;;;0.80;;
13415;SDS011;6779;50.150;8.680;2023-04-02T07:45:31;0.80;;;0.80;;
13415;SDS011;6779;50.150;8.680;2023-04-02T07:47:56;2.67;;;1.50;;
13415;SDS011;6779;50.150;8.680;2023-04-02T07:50:21;0.87;;;0.87;;
13415;SDS011;6779;50.150;8.680;2023-04-02T07:52:47;1.13;;;1.13;;
13415;SDS011;6779;50.150;8.680;2023-04-02T07:55:13;0.80;;;0.80;;
13415;SDS011;6779;50.150;8.680;2023-04-02T07:57:40;1.13;;;1.03;;
13415;SDS011;6779;50.150;8.680;2023-04-02T08:00:13;1.40;;;1.30;;
13415;SDS011;6779;50.150;8.680;2023-04-02T08:02:39;1.30;;;1.20;;
13415;SDS011;6779;50.150;8.680;2023-04-02T08:05:05;1.53;;;0.90;;
13415;SDS011;6779;50.150;8.680;2023-04-02T08:07:31;1.07;;;0.97;;
13415;SDS011;6779;50.150;8.680;2023-04-02T08:09:56;1.70;;;1.30;;
13415;SDS011;6779;50.150;8.680;2023-04-02T08:12:22;1.63;;;1.17;;
13415;SDS011;6779;50.150;8.680;2023-04-02T08:14:47;1.30;;;1.20;;
13415;SDS011;6779;50.150;8.680;2023-04-02T08:17:12;1.47;;;1.17;;
13415;SDS011;6779;50.150;8.680;2023-04-02T08:19:38;1.50;;;1.40;;
13415;SDS011;6779;50.150;8.680;2023-04-02T08:22:03;1.20;;;1.10;;
13415;SDS011;6779;50.150;8.680;2023-04-02T08:24:28;1.70;;;1.30;;
13415;SDS011;6779;50.150;8.680;2023-04-02T08:26:54;1.27;;;1.17;;
13415;SDS011;6779;50.150;8.680;2023-04-02T08:29:19;1.23;;;1.13;;
13415;SDS011;6779;50.150;8.680;2023-04-02T08:31:45;2.10;;;1.10;;
13415;SDS011;6779;50.150;8.680;2023-04-02T08:34:10;1.40;;;1.30;;
13415;SDS011;6779;50.150;8.680;2023-04-02T08:36:37;1.50;;;1.17;;
13415;SDS011;6779;50.150;8.680;2023-04-02T08:39:03;1.43;;;1.33;;
13415;SDS011;6779;50.150;8.680;2023-04-02T08:41:34;1.53;;;1.33;;
13415;SDS011;6779;50.150;8.680;2023-04-02T08:46:42;1.70;;;1.60;;
13415;SDS011;6779;50.150;8.680;2023-04-02T08:49:27;1.60;;;1.50;;
13415;SDS011;6779;50.150;8.680;2023-04-02T08:51:55;1.77;;;1.33;;
13415;SDS011;6779;50.150;8.680;2023-04-02T08:54:27;1.60;;;1.37;;
13415;SDS011;6779;50.150;8.680;2023-04-02T08:57:00;1.47;;;1.37;;
13415;SDS011;6779;50.150;8.680;2023-04-02T08:59:42;1.50;;;1.40;;
13415;SDS011;6779;50.150;8.680;2023-04-02T09:05:03;1.63;;;1.47;;
13415;SDS011;6779;50.150;8.680;2023-04-02T09:07:30;1.40;;;1.30;;
13415;SDS011;6779;50.150;8.680;2023-04-02T09:09:57;1.50;;;1.40;;
13415;SDS011;6779;50.150;8.680;2023-04-02T09:12:26;1.80;;;1.40;;
13415;SDS011;6779;50.150;8.680;2023-04-02T09:17:34;1.57;;;1.47;;
13415;SDS011;6779;50.150;8.680;2023-04-02T09:20:18;2.03;;;1.60;;
13415;SDS011;6779;50.150;8.680;2023-04-02T09:22:46;2.23;;;1.60;;
13415;SDS011;6779;50.150;8.680;2023-04-02T09:25:14;1.70;;;1.60;;
13415;SDS011;6779;50.150;8.680;2023-04-02T09:27:42;2.30;;;1.63;;
13415;SDS011;6779;50.150;8.680;2023-04-02T09:30:23;1.67;;;1.50;;
13415;SDS011;6779;50.150;8.680;2023-04-02T09:32:55;2.30;;;2.10;;
13415;SDS011;6779;50.150;8.680;2023-04-02T09:35:27;3.30;;;1.90;;
13415;SDS011;6779;50.150;8.680;2023-04-02T09:40:31;1.90;;;1.80;;
13415;SDS011;6779;50.150;8.680;2023-04-02T09:43:11;2.13;;;1.97;;
13415;SDS011;6779;50.150;8.680;2023-04-02T09:45:41;1.77;;;1.67;;
13415;SDS011;6779;50.150;8.680;2023-04-02T09:48:23;2.30;;;1.83;;
13415;SDS011;6779;50.150;8.680;2023-04-02T09:51:02;2.13;;;1.90;;
13415;SDS011;6779;50.150;8.680;2023-04-02T09:54:34;1.90;;;1.77;;
13415;SDS011;6779;50.150;8.680;2023-04-02T09:56:38;2.50;;;1.73;;
13415;SDS011;6779;50.150;8.680;2023-04-02T09:59:05;3.23;;;1.97;;
13415;SDS011;6779;50.150;8.680;2023-04-02T10:01:38;1.90;;;1.80;;
13415;SDS011;6779;50.150;8.680;2023-04-02T10:04:16;1.90;;;1.80;;
13415;SDS011;6779;50.150;8.680;2023-04-02T10:06:56;2.50;;;2.10;;
13415;SDS011;6779;50.150;8.680;2023-04-02T10:09:30;3.40;;;1.97;;
13415;SDS011;6779;50.150;8.680;2023-04-02T10:12:02;1.90;;;1.80;;
13415;SDS011;6779;50.150;8.680;2023-04-02T10:14:32;2.13;;;1.97;;
13415;SDS011;6779;50.150;8.680;2023-04-02T10:17:01;1.80;;;1.70;;
13415;SDS011;6779;50.150;8.680;2023-04-02T10:19:39;1.60;;;1.50;;
13415;SDS011;6779;50.150;8.680;2023-04-02T10:22:17;1.70;;;1.53;;
13415;SDS011;6779;50.150;8.680;2023-04-02T10:24:44;1.87;;;1.70;;
13415;SDS011;6779;50.150;8.680;2023-04-02T10:38:28;2.00;;;1.80;;
13415;SDS011;6779;50.150;8.680;2023-04-02T10:43:36;1.73;;;1.60;;
13415;SDS011;6779;50.150;8.680;2023-04-02T10:49:03;1.63;;;1.53;;
13415;SDS011;6779;50.150;8.680;2023-04-02T10:52:17;1.70;;;1.60;;
13415;SDS011;6779;50.150;8.680;2023-04-02T10:54:42;1.73;;;1.43;;
13415;SDS011;6779;50.150;8.680;2023-04-02T10:59:46;1.70;;;1.60;;
13415;SDS011;6779;50.150;8.680;2023-04-02T11:02:33;1.80;;;1.70;;
13415;SDS011;6779;50.150;8.680;2023-04-02T11:05:04;1.67;;;1.43;;
13415;SDS011;6779;50.150;8.680;2023-04-02T11:07:42;1.77;;;1.67;;
13415;SDS011;6779;50.150;8.680;2023-04-02T11:10:13;1.53;;;1.43;;
13415;SDS011;6779;50.150;8.680;2023-04-02T11:12:44;2.20;;;2.00;;
13415;SDS011;6779;50.150;8.680;2023-04-02T11:15:14;2.57;;;2.17;;
13415;SDS011;6779;50.150;8.680;2023-04-02T11:17:41;2.37;;;2.10;;
13415;SDS011;6779;50.150;8.680;2023-04-02T11:23:10;3.30;;;1.83;;
13415;SDS011;6779;50.150;8.680;2023-04-02T11:25:37;2.50;;;2.10;;
13415;SDS011;6779;50.150;8.680;2023-04-02T11:28:12;2.93;;;2.23;;
13415;SDS011;6779;50.150;8.680;2023-04-02T11:30:42;2.20;;;2.10;;
13415;SDS011;6779;50.150;8.680;2023-04-02T11:35:55;3.30;;;2.47;;
13415;SDS011;6779;50.150;8.680;2023-04-02T11:45:59;2.53;;;2.33;;
13415;SDS011;6779;50.150;8.680;2023-04-02T11:48:25;4.03;;;3.40;;
13415;SDS011;6779;50.150;8.680;2023-04-02T11:50:51;2.60;;;2.40;;
13415;SDS011;6779;50.150;8.680;2023-04-02T12:06:18;2.50;;;2.30;;
13415;SDS011;6779;50.150;8.680;2023-04-02T12:08:55;2.73;;;2.53;;
13415;SDS011;6779;50.150;8.680;2023-04-02T12:11:30;2.70;;;2.50;;
13415;SDS011;6779;50.150;8.680;2023-04-02T12:13:58;2.40;;;2.20;;
13415;SDS011;6779;50.150;8.680;2023-04-02T12:16:24;2.87;;;2.67;;
13415;SDS011;6779;50.150;8.680;2023-04-02T12:18:55;4.07;;;3.00;;
13415;SDS011;6779;50.150;8.680;2023-04-02T12:21:22;3.00;;;2.70;;
13415;SDS011;6779;50.150;8.680;2023-04-02T12:23:50;3.07;;;2.77;;
13415;SDS011;6779;50.150;8.680;2023-04-02T12:26:32;3.43;;;2.90;;
13415;SDS011;6779;50.150;8.680;2023-04-02T12:29:21;3.57;;;3.13;;
13415;SDS011;6779;50.150;8.680;2023-04-02T12:31:48;3.70;;;3.17;;
13415;SDS011;6779;50.150;8.680;2023-04-02T12:34:15;4.57;;;3.40;;
13415;SDS011;6779;50.150;8.680;2023-04-02T12:36:55;4.50;;;3.20;;
13415;SDS011;6779;50.150;8.680;2023-04-02T12:39:23;3.27;;;2.97;;
13415;SDS011;6779;50.150;8.680;2023-04-02T12:41:48;2.80;;;2.60;;
13415;SDS011;6779;50.150;8.680;2023-04-02T12:44:15;3.30;;;3.00;;
13415;SDS011;6779;50.150;8.680;2023-04-02T12:46:42;3.37;;;3.07;;
13415;SDS011;6779;50.150;8.680;2023-04-02T12:49:29;3.03;;;2.73;;
13415;SDS011;6779;50.150;8.680;2023-04-02T12:51:55;4.40;;;3.37;;
13415;SDS011;6779;50.150;8.680;2023-04-02T12:54:21;3.73;;;3.20;;
13415;SDS011;6779;50.150;8.680;2023-04-02T12:56:47;3.30;;;2.93;;
13415;SDS011;6779;50.150;8.680;2023-04-02T12:59:25;3.40;;;3.07;;
13415;SDS011;6779;50.150;8.680;2023-04-02T13:01:53;4.40;;;3.47;;
13415;SDS011;6779;50.150;8.680;2023-04-02T13:04:23;4.57;;;3.60;;
13415;SDS011;6779;50.150;8.680;2023-04-02T13:06:49;4.10;;;3.50;;
13415;SDS011;6779;50.150;8.680;2023-04-02T13:12:01;3.83;;;3.43;;
13415;SDS011;6779;50.150;8.680;2023-04-02T13:14:27;4.43;;;4.03;;
13415;SDS011;6779;50.150;8.680;2023-04-02T13:16:52;4.70;;;4.07;;
13415;SDS011;6779;50.150;8.680;2023-04-02T13:21:56;5.50;;;4.33;;
13415;SDS011;6779;50.150;8.680;2023-04-02T13:24:27;4.93;;;4.07;;
13415;SDS011;6779;50.150;8.680;2023-04-02T13:26:55;4.53;;;3.87;;
13415;SDS011;6779;50.150;8.680;2023-04-02T13:29:26;4.03;;;3.70;;
13415;SDS011;6779;50.150;8.680;2023-04-02T13:31:54;4.57;;;4.17;;
13415;SDS011;6779;50.150;8.680;2023-04-02T13:34:21;4.57;;;4.17;;
13415;SDS011;6779;50.150;8.680;2023-04-02T13:36:47;4.40;;;4.00;;
13415;SDS011;6779;50.150;8.680;2023-04-02T13:39:12;5.23;;;4.47;;
13415;SDS011;6779;50.150;8.680;2023-04-02T13:41:39;4.37;;;3.83;;
13415;SDS011;6779;50.150;8.680;2023-04-02T13:44:10;4.47;;;4.07;;
13415;SDS011;6779;50.150;8.680;2023-04-02T13:46:42;5.47;;;4.17;;
13415;SDS011;6779;50.150;8.680;2023-04-02T13:49:07;5.33;;;4.60;;
13415;SDS011;6779;50.150;8.680;2023-04-02T13:51:35;5.57;;;5.00;;
13415;SDS011;6779;50.150;8.680;2023-04-02T13:54:06;7.27;;;5.83;;
13415;SDS011;6779;50.150;8.680;2023-04-02T13:56:39;6.13;;;5.20;;
13415;SDS011;6779;50.150;8.680;2023-04-02T13:59:05;6.30;;;5.70;;
13415;SDS011;6779;50.150;8.680;2023-04-02T14:01:30;5.53;;;5.03;;
13415;SDS011;6779;50.150;8.680;2023-04-02T14:03:56;6.10;;;4.77;;
13415;SDS011;6779;50.150;8.680;2023-04-02T14:09:36;5.27;;;4.77;;
13415;SDS011;6779;50.150;8.680;2023-04-02T14:17:56;5.53;;;4.53;;
13415;SDS011;6779;50.150;8.680;2023-04-02T14:20:35;7.43;;;4.93;;
13415;SDS011;6779;50.150;8.680;2023-04-02T14:23:30;6.27;;;5.27;;
13415;SDS011;6779;50.150;8.680;2023-04-02T14:31:52;5.57;;;4.80;;
13415;SDS011;6779;50.150;8.680;2023-04-02T14:44:35;5.60;;;4.57;;
13415;SDS011;6779;50.150;8.680;2023-04-02T14:47:20;5.67;;;4.73;;
13415;SDS011;6779;50.150;8.680;2023-04-02T14:49:50;5.07;;;4.50;;
13415;SDS011;6779;50.150;8.680;2023-04-02T14:52:20;5.43;;;4.93;;
13415;SDS011;6779;50.150;8.680;2023-04-02T14:54:48;6.43;;;5.03;;
13415;SDS011;6779;50.150;8.680;2023-04-02T14:57:18;5.53;;;4.57;;
13415;SDS011;6779;50.150;8.680;2023-04-02T15:07:45;4.33;;;3.93;;
13415;SDS011;6779;50.150;8.680;2023-04-02T15:12:42;4.83;;;3.47;;
13415;SDS011;6779;50.150;8.680;2023-04-02T15:15:31;3.90;;;3.50;;
13415;SDS011;6779;50.150;8.680;2023-04-02T15:18:00;4.00;;;3.60;;
13415;SDS011;6779;50.150;8.680;2023-04-02T15:20:26;5.30;;;3.70;;
13415;SDS011;6779;50.150;8.680;2023-04-02T15:28:40;3.90;;;3.50;;
13415;SDS011;6779;50.150;8.680;2023-04-02T15:31:11;3.93;;;3.53;;
13415;SDS011;6779;50.150;8.680;2023-04-02T15:33:44;3.83;;;3.50;;
13415;SDS011;6779;50.150;8.680;2023-04-02T15:41:55;4.30;;;3.47;;
13415;SDS011;6779;50.150;8.680;2023-04-02T15:44:25;4.57;;;3.60;;
13415;SDS011;6779;50.150;8.680;2023-04-02T15:46:53;4.70;;;3.60;;
13415;SDS011;6779;50.150;8.680;2023-04-02T15:49:32;3.83;;;3.53;;
13415;SDS011;6779;50.150;8.680;2023-04-02T15:54:52;6.80;;;3.60;;
13415;SDS011;6779;50.150;8.680;2023-04-02T16:00:24;5.37;;;4.30;;
13415;SDS011;6779;50.150;8.680;2023-04-02T16:11:24;5.77;;;4.50;;
13415;SDS011;6779;50.150;8.680;2023-04-02T16:13:50;6.17;;;5.07;;
13415;SDS011;6779;50.150;8.680;2023-04-02T16:16:20;7.13;;;5.23;;
13415;SDS011;6779;50.150;8.680;2023-04-02T16:19:06;6.87;;;5.03;;
13415;SDS011;6779;50.150;8.680;2023-04-02T16:21:39;7.47;;;5.00;;
13415;SDS011;6779;50.150;8.680;2023-04-02T16:24:10;6.33;;;5.73;;
13415;SDS011;6779;50.150;8.680;2023-04-02T16:29:40;6.20;;;4.90;;
13415;SDS011;6779;50.150;8.680;2023-04-02T16:38:35;5.77;;;5.27;;
13415;SDS011;6779;50.150;8.680;2023-04-02T16:43:53;6.23;;;5.67;;
13415;SDS011;6779;50.150;8.680;2023-04-02T16:46:30;6.40;;;5.03;;
13415;SDS011;6779;50.150;8.680;2023-04-02T16:49:00;5.50;;;4.90;;
13415;SDS011;6779;50.150;8.680;2023-04-02T16:51:33;5.00;;;4.50;;
13415;SDS011;6779;50.150;8.680;2023-04-02T16:54:15;5.87;;;5.37;;
13415;SDS011;6779;50.150;8.680;2023-04-02T17:02:43;6.13;;;5.17;;
13415;SDS011;6779;50.150;8.680;2023-04-02T17:08:20;5.80;;;4.70;;
13415;SDS011;6779;50.150;8.680;2023-04-02T17:10:44;8.53;;;5.73;;
13415;SDS011;6779;50.150;8.680;2023-04-02T17:15:40;6.10;;;5.50;;
13415;SDS011;6779;50.150;8.680;2023-04-02T17:18:23;5.90;;;5.20;;
13415;SDS011;6779;50.150;8.680;2023-04-02T17:20:49;5.20;;;4.70;;
13415;SDS011;6779;50.150;8.680;2023-04-02T17:23:15;4.73;;;4.33;;
13415;SDS011;6779;50.150;8.680;2023-04-02T17:28:16;4.93;;;4.30;;
13415;SDS011;6779;50.150;8.680;2023-04-02T17:30:49;5.33;;;4.83;;
13415;SDS011;6779;50.150;8.680;2023-04-02T17:33:17;6.07;;;4.60;;
13415;SDS011;6779;50.150;8.680;2023-04-02T17:38:39;4.77;;;4.37;;
13415;SDS011;6779;50.150;8.680;2023-04-02T17:44:35;5.73;;;4.80;;
13415;SDS011;6779;50.150;8.680;2023-04-02T17:52:22;5.33;;;4.27;;
13415;SDS011;6779;50.150;8.680;2023-04-02T18:03:40;5.60;;;5.10;;
13415;SDS011;6779;50.150;8.680;2023-04-02T18:06:19;6.93;;;4.90;;
13415;SDS011;6779;50.150;8.680;2023-04-02T18:12:01;5.53;;;3.67;;
13415;SDS011;6779;50.150;8.680;2023-04-02T18:19:58;3.77;;;3.40;;
13415;SDS011;6779;50.150;8.680;2023-04-02T18:25:26;5.67;;;3.63;;
13415;SDS011;6779;50.150;8.680;2023-04-02T18:30:57;6.27;;;4.43;;
13415;SDS011;6779;50.150;8.680;2023-04-02T18:45:20;4.50;;;3.33;;
13415;SDS011;6779;50.150;8.680;2023-04-02T18:51:02;5.10;;;3.40;;
13415;SDS011;6779;50.150;8.680;2023-04-02T18:53:28;6.83;;;3.43;;
13415;SDS011;6779;50.150;8.680;2023-04-02T19:01:13;4.97;;;4.10;;
13415;SDS011;6779;50.150;8.680;2023-04-02T19:03:45;5.87;;;3.20;;
13415;SDS011;6779;50.150;8.680;2023-04-02T19:06:15;3.40;;;3.10;;
13415;SDS011;6779;50.150;8.680;2023-04-02T19:11:27;4.77;;;3.83;;
13415;SDS011;6779;50.150;8.680;2023-04-02T19:14:00;3.63;;;3.33;;
13415;SDS011;6779;50.150;8.680;2023-04-02T19:16:42;4.43;;;3.20;;
13415;SDS011;6779;50.150;8.680;2023-04-02T19:19:21;4.53;;;3.33;;
13415;SDS011;6779;50.150;8.680;2023-04-02T19:21:53;4.97;;;2.80;;
13415;SDS011;6779;50.150;8.680;2023-04-02T19:28:10;4.33;;;3.27;;
13415;SDS011;6779;50.150;8.680;2023-04-02T19:30:27;3.17;;;2.70;;
13415;SDS011;6779;50.150;8.680;2023-04-02T19:33:11;4.87;;;2.93;;
13415;SDS011;6779;50.150;8.680;2023-04-02T19:35:46;5.20;;;3.30;;
13415;SDS011;6779;50.150;8.680;2023-04-02T19:43:50;4.53;;;3.30;;
13415;SDS011;6779;50.150;8.680;2023-04-02T19:46:16;4.03;;;3.57;;
13415;SDS011;6779;50.150;8.680;2023-04-02T19:51:26;4.90;;;3.23;;
13415;SDS011;6779;50.150;8.680;2023-04-02T19:53:52;4.90;;;3.57;;
13415;SDS011;6779;50.150;8.680;2023-04-02T19:56:17;5.53;;;3.20;;
13415;SDS011;6779;50.150;8.680;2023-04-02T19:58:42;2.93;;;2.63;;
13415;SDS011;6779;50.150;8.680;2023-04-02T20:01:08;6.83;;;3.23;;
13415;SDS011;6779;50.150;8.680;2023-04-02T20:03:33;3.00;;;2.70;;
13415;SDS011;6779;50.150;8.680;2023-04-02T20:05:59;5.53;;;3.90;;
13415;SDS011;6779;50.150;8.680;2023-04-02T20:08:24;3.07;;;2.83;;
13415;SDS011;6779;50.150;8.680;2023-04-02T20:10:50;4.00;;;2.90;;
13415;SDS011;6779;50.150;8.680;2023-04-02T20:13:16;3.97;;;3.33;;